createdAt,value
2023-03-15T00:01:23.227Z,4.60
2023-03-15T00:03:49.903Z,4.60
2023-03-15T00:06:16.647Z,4.70
2023-03-15T00:08:47.311Z,4.60
2023-03-15T00:11:15.077Z,4.60
2023-03-15T00:13:41.628Z,4.60
2023-03-15T00:16:08.250Z,4.70
2023-03-15T00:18:34.947Z,4.60
2023-03-15T00:21:01.646Z,4.50
2023-03-15T00:23:28.244Z,4.50
2023-03-15T00:25:54.965Z,4.50
2023-03-15T00:28:21.687Z,4.50
2023-03-15T00:30:48.519Z,4.50
2023-03-15T00:33:15.778Z,4.50
2023-03-15T00:35:43.560Z,4.40
2023-03-15T00:38:10.752Z,4.40
2023-03-15T00:40:38.024Z,4.40
2023-03-15T00:43:04.628Z,4.50
2023-03-15T00:45:31.238Z,4.40
2023-03-15T00:47:57.935Z,4.40
2023-03-15T00:50:24.653Z,4.40
2023-03-15T00:52:51.274Z,4.40
2023-03-15T00:55:19.255Z,4.40
2023-03-15T00:57:46.333Z,4.40
2023-03-15T01:00:20.083Z,4.50
2023-03-15T01:02:46.945Z,4.40
2023-03-15T01:05:14.188Z,4.50
2023-03-15T01:07:40.874Z,4.50
2023-03-15T01:10:07.810Z,4.40
2023-03-15T01:12:34.905Z,4.40
2023-03-15T01:15:02.246Z,4.30
2023-03-15T01:17:28.947Z,4.20
2023-03-15T01:19:55.685Z,4.10
2023-03-15T01:22:22.270Z,4.10
2023-03-15T01:24:48.840Z,4.00
2023-03-15T01:27:15.488Z,3.90
2023-03-15T01:29:42.031Z,3.80
2023-03-15T01:32:08.808Z,3.70
2023-03-15T01:34:36.039Z,3.60
2023-03-15T01:37:05.663Z,3.60
2023-03-15T01:39:32.258Z,3.40
2023-03-15T01:41:58.852Z,3.50
2023-03-15T01:44:45.372Z,3.40
2023-03-15T01:47:12.240Z,3.40
2023-03-15T01:49:38.915Z,3.30
2023-03-15T01:52:08.932Z,3.40
2023-03-15T01:54:49.622Z,3.50
2023-03-15T01:57:18.237Z,3.40
2023-03-15T01:59:51.451Z,3.50
2023-03-15T02:02:20.002Z,3.50
2023-03-15T02:04:48.873Z,3.50
2023-03-15T02:07:16.770Z,3.50
2023-03-15T02:10:03.405Z,3.50
2023-03-15T02:12:31.349Z,3.60
2023-03-15T02:14:59.288Z,3.40
2023-03-15T02:17:33.390Z,3.60
2023-03-15T02:20:05.225Z,3.60
2023-03-15T02:22:40.895Z,3.60
2023-03-15T02:25:12.319Z,3.60
2023-03-15T02:27:39.793Z,3.60
2023-03-15T02:30:07.210Z,3.60
2023-03-15T02:32:34.054Z,3.60
2023-03-15T02:35:00.642Z,3.60
2023-03-15T02:37:27.300Z,3.60
2023-03-15T02:39:53.884Z,3.60
2023-03-15T02:42:20.686Z,3.60
2023-03-15T02:44:48.105Z,3.60
2023-03-15T02:47:19.546Z,3.60
2023-03-15T02:49:49.147Z,3.60
2023-03-15T02:52:15.720Z,3.70
2023-03-15T02:54:45.300Z,3.60
2023-03-15T02:57:13.899Z,3.60
2023-03-15T02:59:42.024Z,3.60
2023-03-15T03:02:11.609Z,3.60
2023-03-15T03:04:38.911Z,3.60
2023-03-15T03:07:05.829Z,3.60
2023-03-15T03:09:32.375Z,3.60
2023-03-15T03:11:58.912Z,3.50
2023-03-15T03:14:25.459Z,3.50
2023-03-15T03:16:52.469Z,3.50
2023-03-15T03:19:19.151Z,3.50
2023-03-15T03:21:45.749Z,3.50
2023-03-15T03:24:16.192Z,3.40
2023-03-15T03:26:46.241Z,3.40
2023-03-15T03:29:16.480Z,3.40
2023-03-15T03:31:43.777Z,3.50
2023-03-15T03:34:12.155Z,3.40
2023-03-15T03:36:38.848Z,3.40
2023-03-15T03:39:05.680Z,3.30
2023-03-15T03:41:32.241Z,3.30
2023-03-15T03:43:59.821Z,3.30
2023-03-15T03:46:28.338Z,3.30
2023-03-15T03:48:55.110Z,3.30
2023-03-15T03:51:21.727Z,3.30
2023-03-15T03:53:48.339Z,3.20
2023-03-15T03:56:14.882Z,3.20
2023-03-15T03:58:41.522Z,3.20
2023-03-15T04:01:08.228Z,3.20
2023-03-15T04:03:34.770Z,3.20
2023-03-15T04:06:01.356Z,3.10
2023-03-15T04:08:27.952Z,3.10
2023-03-15T04:10:55.589Z,3.10
2023-03-15T04:13:22.935Z,3.10
2023-03-15T04:15:50.097Z,3.00
2023-03-15T04:18:17.063Z,2.90
2023-03-15T04:20:46.891Z,3.00
2023-03-15T04:23:14.295Z,2.90
2023-03-15T04:25:41.892Z,2.90
2023-03-15T04:28:10.578Z,2.80
2023-03-15T04:30:37.470Z,2.80
2023-03-15T04:33:04.087Z,2.80
2023-03-15T04:35:31.808Z,2.80
2023-03-15T04:37:58.731Z,2.70
2023-03-15T04:40:29.807Z,2.70
2023-03-15T04:42:56.542Z,2.70
2023-03-15T04:45:23.839Z,2.70
2023-03-15T04:47:53.376Z,2.70
2023-03-15T04:50:20.827Z,2.60
2023-03-15T04:52:47.669Z,2.70
2023-03-15T04:55:14.308Z,2.60
2023-03-15T04:57:40.918Z,2.60
2023-03-15T05:00:08.359Z,2.60
2023-03-15T05:02:35.872Z,2.60
2023-03-15T05:05:02.463Z,2.50
2023-03-15T05:07:29.014Z,2.50
2023-03-15T05:09:55.584Z,2.60
2023-03-15T05:12:22.154Z,2.60
2023-03-15T05:14:48.698Z,2.50
2023-03-15T05:17:15.472Z,2.50
2023-03-15T05:19:42.509Z,2.50
2023-03-15T05:22:09.176Z,2.50
2023-03-15T05:24:35.877Z,2.50
2023-03-15T05:27:02.419Z,2.40
2023-03-15T05:29:29.044Z,2.50
2023-03-15T05:31:55.702Z,2.40
2023-03-15T05:34:24.989Z,2.30
2023-03-15T05:36:51.917Z,2.40
2023-03-15T05:39:19.088Z,2.30
2023-03-15T05:41:46.104Z,2.30
2023-03-15T05:44:12.709Z,2.40
2023-03-15T05:46:39.325Z,2.40
2023-03-15T05:49:05.923Z,2.40
2023-03-15T05:51:32.626Z,2.30
2023-03-15T05:53:59.513Z,2.40
2023-03-15T05:56:26.093Z,3.00
2023-03-15T05:58:52.616Z,2.90
2023-03-15T06:01:19.291Z,3.00
2023-03-15T06:03:45.965Z,3.10
2023-03-15T06:06:12.686Z,3.40
2023-03-15T06:08:39.200Z,3.50
2023-03-15T06:11:05.850Z,3.60
2023-03-15T06:13:32.487Z,3.70
2023-03-15T06:15:59.151Z,3.90
2023-03-15T06:18:25.742Z,4.00
2023-03-15T06:20:52.270Z,4.50
2023-03-15T06:23:18.985Z,5.10
2023-03-15T06:25:45.663Z,5.20
2023-03-15T06:28:12.293Z,5.20
2023-03-15T06:30:38.955Z,5.40
2023-03-15T06:33:05.664Z,5.50
2023-03-15T06:35:32.309Z,5.70
2023-03-15T06:37:59.111Z,5.80
2023-03-15T06:40:25.669Z,6.10
2023-03-15T06:42:52.341Z,6.00
2023-03-15T06:45:18.870Z,6.30
2023-03-15T06:47:45.442Z,6.30
2023-03-15T06:50:12.373Z,6.50
2023-03-15T06:52:38.980Z,6.70
2023-03-15T06:55:05.780Z,6.80
2023-03-15T06:57:32.675Z,7.10
2023-03-15T06:59:59.273Z,7.10
2023-03-15T07:02:25.886Z,7.30
2023-03-15T07:04:52.627Z,7.60
2023-03-15T07:07:19.237Z,7.70
2023-03-15T07:09:45.862Z,7.90
2023-03-15T07:12:12.558Z,8.30
2023-03-15T07:14:39.128Z,8.50
2023-03-15T07:17:05.759Z,8.60
2023-03-15T07:19:32.438Z,9.20
2023-03-15T07:21:58.966Z,9.20
2023-03-15T07:24:25.499Z,9.30
2023-03-15T07:26:56.487Z,9.60
2023-03-15T07:29:23.658Z,9.60
2023-03-15T07:31:50.650Z,10.10
2023-03-15T07:34:17.491Z,10.60
2023-03-15T07:36:44.124Z,10.90
2023-03-15T07:39:11.722Z,11.40
2023-03-15T07:41:38.309Z,11.80
2023-03-15T07:44:05.210Z,12.40
2023-03-15T07:46:31.814Z,12.90
2023-03-15T07:48:58.391Z,13.50
2023-03-15T07:51:24.997Z,14.00
2023-03-15T07:53:51.694Z,14.20
2023-03-15T07:56:19.707Z,14.50
2023-03-15T07:58:46.368Z,14.60
2023-03-15T08:01:13.002Z,14.60
2023-03-15T08:03:39.576Z,14.50
2023-03-15T08:06:06.214Z,14.80
2023-03-15T08:08:32.995Z,14.80
2023-03-15T08:10:59.621Z,15.50
2023-03-15T08:13:26.260Z,15.50
2023-03-15T08:15:52.876Z,16.30
2023-03-15T08:18:19.446Z,16.20
2023-03-15T08:20:46.107Z,16.40
2023-03-15T08:23:16.635Z,16.50
2023-03-15T08:25:44.078Z,16.90
2023-03-15T08:28:11.312Z,16.80
2023-03-15T08:30:38.003Z,16.80
2023-03-15T08:33:05.015Z,16.70
2023-03-15T08:35:33.088Z,16.80
2023-03-15T08:38:00.211Z,16.90
2023-03-15T08:40:26.909Z,17.00
2023-03-15T08:42:53.557Z,17.30
2023-03-15T08:45:20.756Z,17.60
2023-03-15T08:47:47.321Z,17.90
2023-03-15T08:50:15.155Z,17.80
2023-03-15T08:52:42.120Z,18.00
2023-03-15T08:55:09.044Z,18.70
2023-03-15T08:57:35.639Z,19.00
2023-03-15T09:00:08.045Z,19.80
2023-03-15T09:02:34.957Z,20.10
2023-03-15T09:05:01.618Z,20.30
2023-03-15T09:07:28.236Z,20.90
2023-03-15T09:09:54.814Z,21.30
2023-03-15T09:12:21.440Z,22.10
2023-03-15T09:14:47.984Z,22.20
2023-03-15T09:17:14.573Z,21.70
2023-03-15T09:19:41.310Z,21.70
2023-03-15T09:22:16.803Z,20.20
2023-03-15T09:24:51.451Z,18.60
2023-03-15T09:27:18.575Z,17.60
2023-03-15T09:29:45.190Z,17.20
2023-03-15T09:32:11.891Z,16.90
2023-03-15T09:34:41.808Z,16.40
2023-03-15T09:37:09.324Z,15.20
2023-03-15T09:39:35.882Z,14.30
2023-03-15T09:42:06.431Z,14.30
2023-03-15T09:44:48.159Z,15.20
2023-03-15T09:47:26.734Z,15.80
2023-03-15T09:50:07.236Z,15.00
2023-03-15T09:52:38.722Z,14.30
2023-03-15T09:55:16.877Z,13.60
2023-03-15T09:57:43.452Z,13.00
2023-03-15T10:00:14.790Z,12.60
2023-03-15T10:02:48.921Z,12.40
2023-03-15T10:05:18.980Z,12.10
2023-03-15T10:07:46.123Z,11.80
2023-03-15T10:10:20.333Z,11.50
2023-03-15T10:12:51.543Z,11.10
2023-03-15T10:15:23.770Z,10.90
2023-03-15T10:17:59.617Z,10.50
2023-03-15T10:20:28.108Z,10.50
2023-03-15T10:23:13.520Z,10.30
2023-03-15T10:25:41.041Z,10.20
2023-03-15T10:28:07.576Z,10.10
2023-03-15T10:30:35.673Z,10.40
2023-03-15T10:33:11.853Z,10.60
2023-03-15T10:35:38.525Z,10.70
2023-03-15T10:38:18.849Z,10.70
2023-03-15T10:40:46.938Z,10.90
2023-03-15T10:43:19.233Z,10.80
2023-03-15T10:46:02.777Z,10.80
2023-03-15T10:48:31.179Z,10.80
2023-03-15T10:51:00.832Z,10.70
2023-03-15T10:53:27.552Z,10.70
2023-03-15T10:56:07.410Z,10.60
2023-03-15T10:58:41.739Z,10.50
2023-03-15T11:01:11.176Z,10.40
2023-03-15T11:03:38.058Z,10.30
2023-03-15T11:06:18.568Z,10.00
2023-03-15T11:08:45.245Z,9.90
2023-03-15T11:11:11.894Z,9.50
2023-03-15T11:13:39.766Z,9.40
2023-03-15T11:16:15.555Z,9.10
2023-03-15T11:18:53.560Z,9.00
2023-03-15T11:21:23.625Z,8.90
2023-03-15T11:23:51.214Z,8.80
2023-03-15T11:26:31.486Z,8.60
2023-03-15T11:29:01.138Z,8.50
2023-03-15T11:31:28.712Z,8.50
2023-03-15T11:34:00.611Z,8.40
2023-03-15T11:36:30.826Z,8.30
2023-03-15T11:39:01.415Z,8.20
2023-03-15T11:41:38.738Z,8.20
2023-03-15T11:44:12.588Z,7.90
2023-03-15T11:46:57.819Z,8.00
2023-03-15T11:49:31.139Z,7.90
2023-03-15T11:51:57.914Z,7.80
2023-03-15T11:54:26.103Z,7.90
2023-03-15T11:56:56.819Z,7.80
2023-03-15T11:59:29.022Z,7.70
2023-03-15T12:01:58.547Z,7.70
2023-03-15T12:04:25.152Z,7.70
2023-03-15T12:06:54.090Z,7.80
2023-03-15T12:09:32.563Z,7.90
2023-03-15T12:12:00.414Z,7.80
2023-03-15T12:14:33.086Z,7.60
2023-03-15T12:17:18.507Z,7.60
2023-03-15T12:19:45.127Z,7.60
2023-03-15T12:22:16.185Z,7.50
2023-03-15T12:24:45.297Z,7.70
2023-03-15T12:27:19.827Z,7.70
2023-03-15T12:29:47.124Z,7.70
2023-03-15T12:32:15.104Z,7.50
2023-03-15T12:34:47.458Z,7.50
2023-03-15T12:37:14.003Z,7.30
2023-03-15T12:39:45.896Z,7.40
2023-03-15T12:42:31.230Z,7.30
2023-03-15T12:45:16.229Z,7.20
2023-03-15T12:47:45.822Z,7.20
2023-03-15T12:50:31.356Z,7.20
2023-03-15T12:52:59.634Z,7.30
2023-03-15T12:55:28.261Z,7.30
2023-03-15T12:57:56.346Z,7.30
2023-03-15T13:00:23.659Z,7.30
2023-03-15T13:02:54.915Z,7.40
2023-03-15T13:05:24.553Z,7.50
2023-03-15T13:07:54.292Z,7.50
2023-03-15T13:10:31.315Z,7.40
2023-03-15T13:12:58.052Z,7.40
2023-03-15T13:15:27.915Z,7.40
2023-03-15T13:18:02.066Z,7.30
2023-03-15T13:20:40.809Z,7.20
2023-03-15T13:23:14.592Z,7.10
2023-03-15T13:25:49.998Z,7.00
2023-03-15T13:28:22.479Z,6.90
2023-03-15T13:30:53.423Z,6.90
2023-03-15T13:33:25.733Z,7.00
2023-03-15T13:35:55.371Z,7.00
2023-03-15T13:38:26.931Z,7.20
2023-03-15T13:40:54.339Z,7.30
2023-03-15T13:43:23.870Z,7.50
2023-03-15T13:45:50.410Z,7.70
2023-03-15T13:48:17.684Z,7.70
2023-03-15T13:50:48.435Z,7.60
2023-03-15T13:53:18.888Z,7.50
2023-03-15T13:55:48.846Z,7.30
2023-03-15T13:58:15.557Z,7.20
2023-03-15T14:00:42.441Z,7.00
2023-03-15T14:03:13.574Z,7.00
2023-03-15T14:05:47.750Z,7.00
2023-03-15T14:08:31.913Z,7.10
2023-03-15T14:10:58.445Z,7.20
2023-03-15T14:13:26.618Z,7.30
2023-03-15T14:15:57.421Z,7.30
2023-03-15T14:18:25.255Z,7.30
2023-03-15T14:20:53.593Z,7.30
2023-03-15T14:23:22.680Z,7.20
2023-03-15T14:25:54.077Z,7.20
2023-03-15T14:28:21.300Z,7.10
2023-03-15T14:30:52.227Z,7.10
2023-03-15T14:33:37.825Z,7.00
2023-03-15T14:36:06.534Z,7.10
2023-03-15T14:38:36.183Z,6.70
2023-03-15T14:41:19.073Z,7.10
2023-03-15T14:43:45.731Z,7.10
2023-03-15T14:46:12.834Z,7.00
2023-03-15T14:48:39.622Z,7.00
2023-03-15T14:51:06.452Z,7.10
2023-03-15T14:53:35.955Z,7.00
2023-03-15T14:56:03.287Z,6.80
2023-03-15T14:58:29.838Z,6.90
2023-03-15T15:00:57.940Z,6.90
2023-03-15T15:03:35.556Z,6.90
2023-03-15T15:06:02.748Z,6.90
2023-03-15T15:08:31.085Z,8.40
2023-03-15T15:10:57.786Z,10.70
2023-03-15T15:13:26.549Z,11.80
2023-03-15T15:15:56.587Z,12.70
2023-03-15T15:18:24.398Z,13.20
2023-03-15T15:20:54.191Z,13.60
2023-03-15T15:23:22.952Z,13.10
2023-03-15T15:25:50.053Z,11.80
2023-03-15T15:28:33.111Z,10.90
2023-03-15T15:31:00.599Z,10.20
2023-03-15T15:33:27.133Z,9.50
2023-03-15T15:35:55.015Z,9.30
2023-03-15T15:38:27.350Z,9.20
2023-03-15T15:40:53.982Z,9.30
2023-03-15T15:43:21.168Z,9.30
2023-03-15T15:45:47.708Z,9.10
2023-03-15T15:48:14.294Z,9.10
2023-03-15T15:50:40.910Z,9.00
2023-03-15T15:53:07.675Z,8.90
2023-03-15T15:55:35.483Z,8.90
2023-03-15T15:58:02.702Z,9.00
2023-03-15T16:00:29.417Z,9.70
2023-03-15T16:02:56.917Z,10.80
2023-03-15T16:05:27.406Z,11.60
2023-03-15T16:07:54.994Z,12.30
2023-03-15T16:10:24.003Z,12.60
2023-03-15T16:12:51.845Z,12.70
2023-03-15T16:15:18.688Z,12.90
2023-03-15T16:17:45.852Z,13.10
2023-03-15T16:20:13.274Z,12.90
2023-03-15T16:22:41.421Z,11.40
2023-03-15T16:25:09.904Z,10.30
2023-03-15T16:27:36.635Z,9.50
2023-03-15T16:30:04.881Z,8.90
2023-03-15T16:32:43.370Z,8.40
2023-03-15T16:35:15.302Z,8.10
2023-03-15T16:37:42.656Z,7.80
2023-03-15T16:40:14.909Z,7.50
2023-03-15T16:42:41.481Z,7.20
2023-03-15T16:45:12.284Z,7.00
2023-03-15T16:47:38.880Z,6.90
2023-03-15T16:50:05.520Z,6.80
2023-03-15T16:52:32.712Z,6.70
2023-03-15T16:55:01.028Z,6.50
2023-03-15T16:57:27.633Z,6.40
2023-03-15T16:59:54.231Z,6.20
2023-03-15T17:02:22.522Z,6.20
2023-03-15T17:04:49.245Z,6.20
2023-03-15T17:07:17.060Z,6.20
2023-03-15T17:09:45.473Z,6.00
2023-03-15T17:12:32.309Z,5.80
2023-03-15T17:14:59.753Z,5.70
2023-03-15T17:17:33.128Z,5.60
2023-03-15T17:20:00.218Z,5.60
2023-03-15T17:22:26.978Z,5.60
2023-03-15T17:24:54.038Z,5.50
2023-03-15T17:27:25.880Z,5.40
2023-03-15T17:29:52.809Z,5.50
2023-03-15T17:32:19.497Z,7.50
2023-03-15T17:34:47.404Z,7.80
2023-03-15T17:37:14.726Z,6.90
2023-03-15T17:39:41.679Z,6.00
2023-03-15T17:42:17.419Z,5.60
2023-03-15T17:44:43.971Z,5.20
2023-03-15T17:47:11.012Z,5.00
2023-03-15T17:49:37.715Z,4.90
2023-03-15T17:52:06.075Z,4.60
2023-03-15T17:54:33.934Z,4.50
2023-03-15T17:57:00.748Z,4.40
2023-03-15T17:59:27.329Z,4.40
2023-03-15T18:01:54.140Z,4.20
2023-03-15T18:04:20.889Z,3.80
2023-03-15T18:06:47.697Z,4.10
2023-03-15T18:09:15.798Z,4.10
2023-03-15T18:11:42.626Z,4.00
2023-03-15T18:14:13.642Z,4.00
2023-03-15T18:16:40.407Z,3.80
2023-03-15T18:19:07.220Z,3.80
2023-03-15T18:21:33.857Z,3.80
2023-03-15T18:24:00.446Z,3.90
2023-03-15T18:26:27.407Z,3.70
2023-03-15T18:28:54.063Z,3.70
2023-03-15T18:31:22.015Z,3.70
2023-03-15T18:33:49.179Z,3.60
2023-03-15T18:36:15.789Z,3.70
2023-03-15T18:38:42.583Z,3.50
2023-03-15T18:41:20.692Z,3.40
2023-03-15T18:43:49.882Z,3.40
2023-03-15T18:46:17.549Z,3.30
2023-03-15T18:48:45.342Z,3.30
2023-03-15T18:51:12.638Z,3.30
2023-03-15T18:53:39.962Z,3.30
2023-03-15T18:56:06.856Z,3.20
2023-03-15T18:58:33.424Z,3.10
2023-03-15T19:01:00.037Z,3.10
2023-03-15T19:03:26.604Z,3.20
2023-03-15T19:05:53.653Z,3.10
2023-03-15T19:08:20.442Z,3.10
2023-03-15T19:10:47.318Z,3.00
2023-03-15T19:13:13.914Z,3.00
2023-03-15T19:15:40.522Z,2.90
2023-03-15T19:18:07.123Z,2.90
2023-03-15T19:20:33.932Z,2.80
2023-03-15T19:23:00.570Z,2.80
2023-03-15T19:25:27.140Z,2.80
2023-03-15T19:27:53.729Z,2.80
2023-03-15T19:30:22.407Z,2.70
2023-03-15T19:32:50.352Z,2.70
2023-03-15T19:35:18.922Z,2.70
2023-03-15T19:37:45.786Z,2.60
2023-03-15T19:40:13.371Z,2.60
2023-03-15T19:42:40.056Z,2.50
2023-03-15T19:45:07.101Z,2.50
2023-03-15T19:47:33.711Z,2.60
2023-03-15T19:50:01.350Z,2.60
2023-03-15T19:52:29.080Z,2.50
2023-03-15T19:54:56.249Z,2.50
2023-03-15T19:57:22.862Z,2.50
2023-03-15T19:59:49.670Z,2.50
2023-03-15T20:02:16.291Z,2.50
2023-03-15T20:04:42.898Z,2.50
2023-03-15T20:07:11.074Z,2.50
2023-03-15T20:09:38.982Z,2.50
2023-03-15T20:12:06.533Z,2.50
2023-03-15T20:14:33.131Z,2.40
2023-03-15T20:16:59.641Z,2.40
2023-03-15T20:19:26.518Z,2.30
2023-03-15T20:21:53.208Z,2.40
2023-03-15T20:24:19.765Z,2.30
2023-03-15T20:26:46.586Z,2.30
2023-03-15T20:29:13.203Z,2.30
2023-03-15T20:31:39.951Z,2.30
2023-03-15T20:34:06.574Z,2.30
2023-03-15T20:36:33.717Z,2.30
2023-03-15T20:39:00.305Z,2.20
2023-03-15T20:41:26.918Z,2.20
2023-03-15T20:43:53.492Z,2.20
2023-03-15T20:46:20.361Z,2.10
2023-03-15T20:48:46.929Z,2.10
2023-03-15T20:51:13.523Z,2.10
2023-03-15T20:53:40.520Z,2.10
2023-03-15T20:56:07.482Z,2.00
2023-03-15T20:58:34.029Z,2.00
2023-03-15T21:01:04.886Z,2.20
2023-03-15T21:03:34.016Z,2.00
2023-03-15T21:06:01.592Z,2.00
2023-03-15T21:08:28.790Z,1.90
2023-03-15T21:10:55.570Z,1.90
2023-03-15T21:13:22.599Z,2.00
2023-03-15T21:15:51.364Z,1.90
2023-03-15T21:18:17.966Z,1.90
2023-03-15T21:20:44.559Z,1.80
2023-03-15T21:23:11.420Z,1.80
2023-03-15T21:25:38.170Z,1.70
2023-03-15T21:28:04.778Z,1.80
2023-03-15T21:30:32.080Z,1.70
2023-03-15T21:32:58.666Z,1.70
2023-03-15T21:35:26.252Z,1.70
2023-03-15T21:37:52.833Z,1.60
2023-03-15T21:40:19.387Z,1.60
2023-03-15T21:42:47.803Z,1.50
2023-03-15T21:45:14.618Z,1.50
2023-03-15T21:47:41.515Z,1.40
2023-03-15T21:50:08.884Z,1.40
2023-03-15T21:52:35.538Z,1.30
2023-03-15T21:55:02.350Z,1.30
2023-03-15T21:57:28.983Z,1.30
2023-03-15T21:59:55.670Z,1.40
2023-03-15T22:02:22.279Z,1.40
2023-03-15T22:04:48.883Z,1.30
2023-03-15T22:07:15.606Z,1.30
2023-03-15T22:09:43.293Z,1.30
2023-03-15T22:12:10.413Z,1.30
2023-03-15T22:14:37.119Z,1.30
2023-03-15T22:17:04.856Z,1.20
2023-03-15T22:19:32.082Z,1.10
2023-03-15T22:21:58.793Z,1.10
2023-03-15T22:24:25.387Z,1.10
2023-03-15T22:26:53.124Z,1.00
2023-03-15T22:29:20.106Z,1.00
2023-03-15T22:31:46.723Z,1.00
2023-03-15T22:34:13.350Z,0.90
2023-03-15T22:36:39.918Z,0.90
2023-03-15T22:39:07.550Z,1.00
2023-03-15T22:41:34.343Z,1.00
2023-03-15T22:44:01.092Z,0.90
2023-03-15T22:46:27.868Z,0.90
2023-03-15T22:48:54.535Z,0.90
2023-03-15T22:51:21.764Z,0.90
2023-03-15T22:53:48.395Z,0.90
2023-03-15T22:56:15.455Z,0.90
2023-03-15T22:58:42.194Z,0.90
2023-03-15T23:01:09.676Z,0.80
2023-03-15T23:03:36.427Z,0.90
2023-03-15T23:06:03.060Z,0.90
2023-03-15T23:08:29.593Z,0.80
2023-03-15T23:10:57.435Z,0.70
2023-03-15T23:13:24.124Z,0.80
2023-03-15T23:15:50.925Z,0.80
2023-03-15T23:18:17.487Z,0.80
2023-03-15T23:20:44.078Z,0.90
2023-03-15T23:23:10.652Z,0.70
2023-03-15T23:25:38.798Z,0.80
2023-03-15T23:28:06.046Z,0.80
2023-03-15T23:30:35.468Z,0.70
2023-03-15T23:33:03.675Z,0.70
2023-03-15T23:35:31.403Z,0.60
2023-03-15T23:37:58.057Z,0.60
2023-03-15T23:40:25.799Z,0.50
2023-03-15T23:42:58.865Z,0.60
2023-03-15T23:45:26.844Z,0.60
2023-03-15T23:47:53.498Z,0.60
2023-03-15T23:50:20.030Z,0.60
2023-03-15T23:52:46.649Z,0.50
2023-03-15T23:55:13.244Z,0.50
2023-03-15T23:57:40.300Z,0.40
